createdAt,value
2023-02-25T00:01:57.781Z,92927.31
2023-02-25T00:04:31.717Z,92935.13
2023-02-25T00:06:59.616Z,92923.63
2023-02-25T00:09:28.135Z,92938.97
2023-02-25T00:11:56.301Z,92940.25
2023-02-25T00:14:24.196Z,92926.56
2023-02-25T00:16:56.235Z,92930.16
2023-02-25T00:19:25.629Z,92935.13
2023-02-25T00:21:53.434Z,92928.03
2023-02-25T00:24:21.544Z,92924.03
2023-02-25T00:26:49.372Z,92931.31
2023-02-25T00:29:17.476Z,92927.13
2023-02-25T00:31:47.064Z,92922.44
2023-02-25T00:34:17.944Z,92927.75
2023-02-25T00:36:46.148Z,92924.72
2023-02-25T00:39:14.483Z,92924.22
2023-02-25T00:41:42.691Z,92919.22
2023-02-25T00:44:10.722Z,92907.72
2023-02-25T00:46:39.241Z,92919.75
2023-02-25T00:49:07.316Z,92920.09
2023-02-25T00:51:35.256Z,92912.53
2023-02-25T00:54:03.317Z,92910.78
2023-02-25T00:56:31.119Z,92900.81
2023-02-25T00:58:59.887Z,92905.31
2023-02-25T01:01:30.456Z,92902.19
2023-02-25T01:03:58.897Z,92879.47
2023-02-25T01:06:28.997Z,92898.44
2023-02-25T01:08:58.321Z,92881.72
2023-02-25T01:11:31.227Z,92876.94
2023-02-25T01:14:08.839Z,92862.78
2023-02-25T01:16:37.680Z,92869.91
2023-02-25T01:19:13.038Z,92874.78
2023-02-25T01:21:44.053Z,92863.97
2023-02-25T01:24:21.183Z,92859.84
2023-02-25T01:26:51.853Z,92862.84
2023-02-25T01:29:22.860Z,92847.41
2023-02-25T01:31:56.914Z,92853.94
2023-02-25T01:34:25.878Z,92835.34
2023-02-25T01:36:53.834Z,92849.09
2023-02-25T01:39:25.883Z,92848.19
2023-02-25T01:41:56.138Z,92839.38
2023-02-25T01:44:38.198Z,92836.28
2023-02-25T01:47:07.456Z,92830.47
2023-02-25T01:49:41.300Z,92850.72
2023-02-25T01:52:14.168Z,92840.63
2023-02-25T01:54:45.370Z,92838.44
2023-02-25T01:57:15.724Z,92840.22
2023-02-25T01:59:44.858Z,92846.63
2023-02-25T02:02:15.990Z,92810.34
2023-02-25T02:04:45.528Z,92837.44
2023-02-25T02:07:14.641Z,92823.41
2023-02-25T02:09:56.457Z,92821.56
2023-02-25T02:12:42.914Z,92823.97
2023-02-25T02:15:14.684Z,92810.53
2023-02-25T02:17:52.962Z,92807.88
2023-02-25T02:20:57.763Z,92820.84
2023-02-25T02:24:07.114Z,92822.53
2023-02-25T02:26:58.449Z,92824.53
2023-02-25T02:29:27.491Z,92821.03
2023-02-25T02:32:25.586Z,92812.88
2023-02-25T02:35:14.140Z,92807.72
2023-02-25T02:38:00.059Z,92812.59
2023-02-25T02:40:57.211Z,92803.78
2023-02-25T02:43:25.312Z,92807.31
2023-02-25T02:46:21.657Z,92805.88
2023-02-25T02:49:19.373Z,92802.56
2023-02-25T02:51:54.033Z,92792.50
2023-02-25T02:58:00.633Z,92803.97
2023-02-25T03:00:43.864Z,92791.22
2023-02-25T03:03:18.173Z,92794.31
2023-02-25T03:05:51.044Z,92784.63
2023-02-25T03:08:31.540Z,92770.75
2023-02-25T03:11:00.441Z,92783.78
2023-02-25T03:13:28.282Z,92779.41
2023-02-25T03:15:58.020Z,92775.25
2023-02-25T03:18:42.386Z,92774.56
2023-02-25T03:21:18.242Z,92778.63
2023-02-25T03:23:47.984Z,92764.13
2023-02-25T03:26:24.498Z,92762.91
2023-02-25T03:28:57.625Z,92763.66
2023-02-25T03:31:35.760Z,92772.28
2023-02-25T03:34:10.503Z,92758.41
2023-02-25T03:36:54.656Z,92769.41
2023-02-25T03:39:28.145Z,92757.03
2023-02-25T03:42:02.068Z,92766.19
2023-02-25T03:44:39.595Z,92768.25
2023-02-25T03:47:09.960Z,92773.66
2023-02-25T03:49:56.712Z,92777.34
2023-02-25T03:52:26.664Z,92773.78
2023-02-25T03:54:59.403Z,92751.19
2023-02-25T03:57:37.072Z,92750.03
2023-02-25T04:00:15.808Z,92748.16
2023-02-25T04:02:46.657Z,92740.72
2023-02-25T04:05:16.297Z,92735.28
2023-02-25T04:07:44.524Z,92733.78
2023-02-25T04:10:14.862Z,92721.22
2023-02-25T04:12:43.110Z,92721.59
2023-02-25T04:15:14.340Z,92710.97
2023-02-25T04:17:42.882Z,92722.88
2023-02-25T04:20:20.026Z,92723.38
2023-02-25T04:22:47.870Z,92718.63
2023-02-25T04:25:15.731Z,92718.28
2023-02-25T04:27:43.647Z,92714.69
2023-02-25T04:30:12.424Z,92725.38
2023-02-25T04:32:40.474Z,92713.25
2023-02-25T04:35:13.016Z,92713.13
2023-02-25T04:37:42.534Z,92707.91
2023-02-25T04:40:16.101Z,92709.25
2023-02-25T04:42:44.335Z,92707.59
2023-02-25T04:45:14.073Z,92712.81
2023-02-25T04:47:42.407Z,92710.31
2023-02-25T04:50:11.868Z,92704.75
2023-02-25T04:52:39.924Z,92707.78
2023-02-25T04:55:10.013Z,92709.47
2023-02-25T04:57:45.391Z,92706.59
2023-02-25T05:00:16.696Z,92699.09
2023-02-25T05:02:48.765Z,92702.88
2023-02-25T05:05:17.405Z,92702.97
2023-02-25T05:07:45.506Z,92696.75
2023-02-25T05:10:15.359Z,92695.53
2023-02-25T05:12:43.461Z,92694.38
2023-02-25T05:15:12.147Z,92699.41
2023-02-25T05:17:40.326Z,92690.78
2023-02-25T05:20:13.202Z,92697.56
2023-02-25T05:22:42.525Z,92696.31
2023-02-25T05:25:10.708Z,92694.31
2023-02-25T05:27:38.712Z,92677.19
2023-02-25T05:30:07.405Z,92672.63
2023-02-25T05:32:35.584Z,92682.47
2023-02-25T05:35:03.901Z,92684.41
2023-02-25T05:37:32.867Z,92683.19
2023-02-25T05:40:01.434Z,92684.72
2023-02-25T05:42:29.924Z,92707.66
2023-02-25T05:44:57.862Z,92705.84
2023-02-25T05:47:25.706Z,92708.25
2023-02-25T05:49:53.705Z,92730.28
2023-02-25T05:52:21.562Z,92725.22
2023-02-25T05:54:50.666Z,92736.66
2023-02-25T05:57:18.873Z,92723.28
2023-02-25T05:59:46.745Z,92729.94
2023-02-25T06:02:14.942Z,92714.22
2023-02-25T06:04:42.817Z,92721.69
2023-02-25T06:07:10.842Z,92719.06
2023-02-25T06:09:40.194Z,92732.44
2023-02-25T06:12:08.522Z,92729.16
2023-02-25T06:14:36.611Z,92700.31
2023-02-25T06:17:05.036Z,92737.69
2023-02-25T06:19:33.064Z,92729.91
2023-02-25T06:22:00.979Z,92744.34
2023-02-25T06:24:28.959Z,92729.44
2023-02-25T06:26:56.906Z,92730.72
2023-02-25T06:29:24.957Z,92740.78
2023-02-25T06:31:52.910Z,92725.06
2023-02-25T06:34:21.331Z,92722.47
2023-02-25T06:36:49.189Z,92724.78
2023-02-25T06:39:17.113Z,92728.28
2023-02-25T06:41:45.593Z,92725.59
2023-02-25T06:44:15.738Z,92720.94
2023-02-25T06:46:43.925Z,92728.47
2023-02-25T06:49:12.749Z,92722.16
2023-02-25T06:51:40.784Z,92725.19
2023-02-25T06:54:08.696Z,92723.09
2023-02-25T06:56:36.636Z,92720.53
2023-02-25T06:59:04.900Z,92721.41
2023-02-25T07:01:33.174Z,92710.31
2023-02-25T07:04:01.321Z,92714.03
2023-02-25T07:06:29.434Z,92705.03
2023-02-25T07:09:00.304Z,92704.25
2023-02-25T07:11:31.783Z,92694.94
2023-02-25T07:14:00.159Z,92698.13
2023-02-25T07:16:33.350Z,92677.59
2023-02-25T07:19:05.449Z,92676.75
2023-02-25T07:21:34.229Z,92659.13
2023-02-25T07:24:02.640Z,92644.59
2023-02-25T07:26:30.966Z,92636.03
2023-02-25T07:29:00.207Z,92653.56
2023-02-25T07:31:29.348Z,92643.81
2023-02-25T07:34:03.709Z,92653.34
2023-02-25T07:36:35.581Z,92642.34
2023-02-25T07:39:07.031Z,92631.66
2023-02-25T07:41:36.556Z,92624.72
2023-02-25T07:44:06.884Z,92610.81
2023-02-25T07:46:35.759Z,92616.63
2023-02-25T07:49:04.251Z,92620.31
2023-02-25T07:51:33.050Z,92616.44
2023-02-25T07:54:01.149Z,92608.63
2023-02-25T07:56:33.832Z,92597.88
2023-02-25T07:59:01.838Z,92607.31
2023-02-25T08:01:32.053Z,92607.81
2023-02-25T08:04:04.459Z,92604.00
2023-02-25T08:06:40.120Z,92606.50
2023-02-25T08:09:11.483Z,92595.16
2023-02-25T08:11:41.125Z,92585.84
2023-02-25T08:14:09.415Z,92596.69
2023-02-25T08:16:38.227Z,92581.97
2023-02-25T08:19:07.143Z,92596.50
2023-02-25T08:21:35.307Z,92589.09
2023-02-25T08:24:03.604Z,92588.78
2023-02-25T08:26:34.359Z,92591.25
2023-02-25T08:29:02.832Z,92593.88
2023-02-25T08:31:31.307Z,92580.47
2023-02-25T08:33:59.954Z,92571.00
2023-02-25T08:36:29.074Z,92569.31
2023-02-25T08:39:01.359Z,92581.72
2023-02-25T08:41:30.877Z,92569.97
2023-02-25T08:44:01.619Z,92584.91
2023-02-25T08:46:33.676Z,92588.91
2023-02-25T08:49:02.613Z,92587.38
2023-02-25T08:51:34.771Z,92585.72
2023-02-25T08:54:06.965Z,92582.97
2023-02-25T08:56:36.569Z,92586.22
2023-02-25T08:59:05.601Z,92590.78
2023-02-25T09:01:46.389Z,92588.31
2023-02-25T09:04:20.183Z,92589.75
2023-02-25T09:06:49.869Z,92582.16
2023-02-25T09:09:19.934Z,92583.59
2023-02-25T09:11:49.241Z,92591.91
2023-02-25T09:14:17.969Z,92587.84
2023-02-25T09:16:45.961Z,92578.88
2023-02-25T09:19:15.983Z,92581.16
2023-02-25T09:21:46.286Z,92567.97
2023-02-25T09:24:15.106Z,92566.72
2023-02-25T09:26:43.696Z,92562.06
2023-02-25T09:29:12.327Z,92535.59
2023-02-25T09:31:40.926Z,92547.84
2023-02-25T09:34:13.090Z,92547.56
2023-02-25T09:36:41.550Z,92558.63
2023-02-25T09:39:10.632Z,92548.28
2023-02-25T09:41:55.251Z,92539.66
2023-02-25T09:44:49.936Z,92537.75
2023-02-25T09:47:27.426Z,92534.91
2023-02-25T09:50:00.718Z,92529.78
2023-02-25T09:52:35.862Z,92525.28
2023-02-25T09:55:31.408Z,92545.47
2023-02-25T09:58:11.823Z,92527.00
2023-02-25T10:01:11.378Z,92518.81
2023-02-25T10:04:11.668Z,92506.44
2023-02-25T10:06:44.373Z,92517.84
2023-02-25T10:09:54.400Z,92498.69
2023-02-25T10:12:34.694Z,92475.59
2023-02-25T10:15:21.565Z,92467.69
2023-02-25T10:17:59.021Z,92458.53
2023-02-25T10:20:52.487Z,92456.03
2023-02-25T10:23:51.239Z,92461.44
2023-02-25T10:26:24.107Z,92434.50
2023-02-25T10:29:12.374Z,92434.78
2023-02-25T10:31:47.023Z,92428.78
2023-02-25T10:34:27.125Z,92427.47
2023-02-25T10:37:00.340Z,92439.19
2023-02-25T10:39:29.289Z,92419.94
2023-02-25T10:41:57.418Z,92417.56
2023-02-25T10:44:25.569Z,92416.66
2023-02-25T10:47:04.368Z,92425.19
2023-02-25T10:49:38.588Z,92425.03
2023-02-25T10:52:19.781Z,92416.31
2023-02-25T10:54:49.315Z,92410.25
2023-02-25T10:57:33.403Z,92398.66
2023-02-25T11:00:08.920Z,92396.25
2023-02-25T11:02:43.920Z,92405.88
2023-02-25T11:05:37.171Z,92392.13
2023-02-25T11:08:11.375Z,92395.41
2023-02-25T11:10:39.687Z,92384.88
2023-02-25T11:13:29.319Z,92371.50
2023-02-25T11:16:02.531Z,92380.81
2023-02-25T11:18:33.694Z,92348.88
2023-02-25T11:21:08.242Z,92358.78
2023-02-25T11:23:42.639Z,92350.66
2023-02-25T11:26:33.326Z,92372.09
2023-02-25T11:29:16.710Z,92355.94
2023-02-25T11:31:51.504Z,92371.16
2023-02-25T11:34:24.751Z,92350.47
2023-02-25T11:36:53.499Z,92362.16
2023-02-25T11:39:23.278Z,92362.75
2023-02-25T13:52:50.132Z,92373.06
2023-02-25T13:55:37.335Z,92374.72
2023-02-25T13:58:18.156Z,92388.72
2023-02-25T14:01:23.782Z,92379.94
2023-02-25T14:03:58.294Z,92394.19
2023-02-25T14:06:57.123Z,92385.88
2023-02-25T14:09:47.133Z,92395.00
2023-02-25T14:12:46.508Z,92376.63
2023-02-25T14:15:24.568Z,92378.22
2023-02-25T14:18:11.320Z,92359.38
2023-02-25T14:20:57.584Z,92356.50
2023-02-25T14:23:45.059Z,92354.31
2023-02-25T14:26:24.425Z,92356.41
2023-02-25T14:29:29.839Z,92352.03
2023-02-25T14:32:39.743Z,92346.66
2023-02-25T14:35:37.659Z,92359.38
2023-02-25T14:38:23.622Z,92344.88
2023-02-25T14:41:12.938Z,92347.47
2023-02-25T14:43:41.902Z,92336.13
2023-02-25T14:46:34.476Z,92337.66
2023-02-25T14:49:17.065Z,92330.72
2023-02-25T14:51:57.527Z,92346.47
2023-02-25T14:54:53.821Z,92328.81
2023-02-25T14:57:51.331Z,92345.97
2023-02-25T15:00:52.064Z,92335.59
2023-02-25T15:03:22.669Z,92346.09
2023-02-25T15:06:12.625Z,92352.66
2023-02-25T15:09:19.140Z,92359.16
2023-02-25T15:12:12.109Z,92362.53
2023-02-25T15:14:51.583Z,92362.25
2023-02-25T15:17:28.587Z,92381.28
2023-02-25T15:20:15.817Z,92381.13
2023-02-25T15:23:05.445Z,92351.16
2023-02-25T15:25:38.463Z,92371.00
2023-02-25T15:28:31.273Z,92393.31
2023-02-25T15:31:03.010Z,92382.97
2023-02-25T15:33:48.045Z,92374.66
2023-02-25T15:36:19.795Z,92368.31
2023-02-25T15:38:50.550Z,92360.66
2023-02-25T15:41:28.143Z,92370.19
2023-02-25T15:44:03.049Z,92377.63
2023-02-25T15:46:34.482Z,92381.69
2023-02-25T15:49:10.701Z,92380.63
2023-02-25T15:52:06.944Z,92380.19
2023-02-25T15:54:38.615Z,92390.78
2023-02-25T15:57:10.085Z,92376.94
2023-02-25T15:59:49.312Z,92382.47
2023-02-25T16:02:29.516Z,92366.63
2023-02-25T16:05:19.062Z,92380.31
2023-02-25T16:08:02.549Z,92378.59
2023-02-25T16:10:45.076Z,92390.13
2023-02-25T16:13:23.252Z,92388.63
2023-02-25T16:15:56.011Z,92397.44
2023-02-25T16:18:50.853Z,92401.69
2023-02-25T16:21:19.877Z,92397.25
2023-02-25T16:23:48.535Z,92386.34
2023-02-25T16:26:22.752Z,92404.66
2023-02-25T16:29:04.675Z,92407.34
2023-02-25T16:32:03.219Z,92390.41
2023-02-25T16:34:48.587Z,92400.09
2023-02-25T16:37:20.498Z,92395.47
2023-02-25T16:39:49.258Z,92398.72
2023-02-25T16:42:19.316Z,92391.06
2023-02-25T16:45:06.227Z,92391.03
2023-02-25T16:47:38.541Z,92391.38
2023-02-25T16:50:14.344Z,92381.69
2023-02-25T16:52:49.224Z,92385.78
2023-02-25T16:55:23.232Z,92400.00
2023-02-25T16:58:18.918Z,92380.97
2023-02-25T17:00:56.270Z,92392.66
2023-02-25T17:03:46.866Z,92409.31
2023-02-25T17:06:18.735Z,92403.16
2023-02-25T17:08:50.694Z,92410.47
2023-02-25T17:11:22.910Z,92426.63
2023-02-25T17:13:54.940Z,92424.84
2023-02-25T17:16:29.301Z,92436.19
2023-02-25T17:19:04.244Z,92423.31
2023-02-25T17:21:41.896Z,92433.50
2023-02-25T17:24:19.868Z,92422.41
2023-02-25T17:26:51.736Z,92423.97
2023-02-25T17:29:23.199Z,92417.84
2023-02-25T17:31:54.459Z,92424.97
2023-02-25T17:34:33.381Z,92423.59
2023-02-25T17:37:05.706Z,92419.41
2023-02-25T17:39:34.280Z,92411.31
2023-02-25T17:42:02.977Z,92403.38
2023-02-25T17:44:37.448Z,92415.44
2023-02-25T17:47:09.906Z,92412.69
2023-02-25T17:49:39.422Z,92406.13
2023-02-25T17:52:23.921Z,92404.91
2023-02-25T17:54:59.698Z,92399.78
2023-02-25T17:57:30.867Z,92405.03
2023-02-25T18:00:11.079Z,92390.25
2023-02-25T18:02:42.139Z,92398.47
2023-02-25T18:05:13.196Z,92404.75
2023-02-25T18:07:57.791Z,92394.84
2023-02-25T18:10:31.834Z,92396.97
2023-02-25T18:13:02.177Z,92385.69
2023-02-25T18:15:34.602Z,92397.09
2023-02-25T18:18:07.905Z,92387.13
2023-02-25T18:20:41.300Z,92388.34
2023-02-25T18:23:21.464Z,92392.78
2023-02-25T18:26:13.558Z,92395.56
2023-02-25T18:28:42.102Z,92380.84
2023-02-25T18:31:11.113Z,92395.06
2023-02-25T18:33:39.495Z,92376.81
2023-02-25T18:36:09.524Z,92393.13
2023-02-25T18:38:37.898Z,92391.47
2023-02-25T18:41:08.108Z,92408.72
2023-02-25T18:43:42.077Z,92388.94
2023-02-25T18:46:10.899Z,92388.56
2023-02-25T18:48:39.295Z,92386.25
2023-02-25T18:51:14.666Z,92389.22
2023-02-25T18:53:43.111Z,92383.06
2023-02-25T18:56:17.042Z,92374.66
2023-02-25T18:58:46.115Z,92384.97
2023-02-25T19:01:25.477Z,92380.78
2023-02-25T19:03:59.611Z,92381.78
2023-02-25T19:06:34.154Z,92384.03
2023-02-25T19:09:02.637Z,92385.53
2023-02-25T19:11:36.136Z,92398.13
2023-02-25T19:14:07.053Z,92397.28
2023-02-25T19:16:35.539Z,92397.19
2023-02-25T19:19:04.568Z,92387.84
2023-02-25T19:21:33.171Z,92395.19
2023-02-25T19:24:03.289Z,92393.72
2023-02-25T19:26:31.682Z,92389.19
2023-02-25T19:29:01.046Z,92389.19
2023-02-25T19:31:30.287Z,92390.91
2023-02-25T19:33:58.670Z,92374.19
2023-02-25T19:36:27.251Z,92393.28
2023-02-25T19:38:56.234Z,92399.09
2023-02-25T19:41:24.241Z,92405.47
2023-02-25T19:43:52.903Z,92393.06
2023-02-25T19:46:21.618Z,92408.22
2023-02-25T19:48:50.085Z,92411.63
2023-02-25T19:51:18.491Z,92387.09
2023-02-25T19:53:47.038Z,92392.31
2023-02-25T19:56:15.691Z,92397.19
2023-02-25T19:58:44.081Z,92396.31
2023-02-25T20:01:12.439Z,92390.91
2023-02-25T20:03:41.130Z,92400.56
2023-02-25T20:06:13.175Z,92392.22
2023-02-25T20:08:42.150Z,92396.19
2023-02-25T20:11:11.993Z,92403.06
2023-02-25T20:13:40.480Z,92387.66
2023-02-25T20:16:09.787Z,92376.44
2023-02-25T20:18:38.527Z,92382.00
2023-02-25T20:21:07.224Z,92373.19
2023-02-25T20:23:37.011Z,92370.53
2023-02-25T20:26:13.095Z,92383.53
2023-02-25T20:28:42.157Z,92385.75
2023-02-25T20:31:16.929Z,92387.56
2023-02-25T20:33:45.864Z,92392.94
2023-02-25T20:36:57.176Z,92370.28
2023-02-25T20:39:37.643Z,92393.41
2023-02-25T20:42:20.532Z,92388.88
2023-02-25T20:44:51.656Z,92394.91
2023-02-25T20:47:26.621Z,92404.63
2023-02-25T20:49:58.676Z,92380.97
2023-02-25T20:52:27.747Z,92393.75
2023-02-25T20:54:56.175Z,92377.13
2023-02-25T20:57:27.094Z,92380.31
2023-02-25T20:59:55.510Z,92370.22
2023-02-25T21:02:23.618Z,92385.94
2023-02-25T21:04:52.252Z,92375.75
2023-02-25T21:07:20.648Z,92360.03
2023-02-25T21:09:48.515Z,92367.75
2023-02-25T21:12:16.972Z,92375.03
2023-02-25T21:14:45.110Z,92366.53
2023-02-25T21:17:13.922Z,92358.38
2023-02-25T21:19:42.174Z,92366.84
2023-02-25T21:22:10.475Z,92363.16
2023-02-25T21:24:38.810Z,92372.69
2023-02-25T21:27:07.511Z,92372.75
2023-02-25T21:29:35.577Z,92353.31
2023-02-25T21:32:04.030Z,92349.59
2023-02-25T21:34:32.183Z,92350.38
2023-02-25T21:37:00.248Z,92364.16
2023-02-25T21:39:28.857Z,92342.50
2023-02-25T21:41:57.355Z,92347.78
2023-02-25T21:44:25.727Z,92352.91
2023-02-25T21:46:54.090Z,92358.97
2023-02-25T21:49:22.446Z,92346.91
2023-02-25T21:51:51.585Z,92336.59
2023-02-25T21:54:19.682Z,92342.63
2023-02-25T21:56:48.017Z,92346.81
2023-02-25T21:59:16.119Z,92338.31
2023-02-25T22:01:44.728Z,92337.47
2023-02-25T22:04:12.681Z,92347.94
2023-02-25T22:06:43.128Z,92326.84
2023-02-25T22:09:12.036Z,92333.63
2023-02-25T22:11:40.014Z,92337.50
2023-02-25T22:14:09.301Z,92348.56
2023-02-25T22:16:39.055Z,92353.31
2023-02-25T22:19:07.446Z,92342.94
2023-02-25T22:21:36.910Z,92351.38
2023-02-25T22:24:06.013Z,92352.44
2023-02-25T22:26:35.655Z,92371.13
2023-02-25T22:29:08.086Z,92370.84
2023-02-25T22:31:36.650Z,92374.84
2023-02-25T22:34:06.354Z,92383.44
2023-02-25T22:36:34.874Z,92390.09
2023-02-25T22:39:07.620Z,92388.69
2023-02-25T22:41:37.069Z,92390.69
2023-02-25T22:44:05.856Z,92404.69
2023-02-25T22:46:36.368Z,92409.97
2023-02-25T22:49:05.975Z,92408.09
2023-02-25T22:51:43.010Z,92402.41
2023-02-25T22:54:16.052Z,92409.72
2023-02-25T22:56:44.966Z,92390.72
2023-02-25T22:59:14.728Z,92408.31
2023-02-25T23:01:42.743Z,92409.88
2023-02-25T23:04:10.750Z,92408.75
2023-02-25T23:06:44.397Z,92403.09
2023-02-25T23:09:14.369Z,92412.09
2023-02-25T23:11:43.767Z,92412.34
2023-02-25T23:14:11.974Z,92413.97
2023-02-25T23:16:43.772Z,92411.28
2023-02-25T23:19:16.130Z,92416.25
2023-02-25T23:21:44.914Z,92405.78
2023-02-25T23:24:18.775Z,92424.31
2023-02-25T23:26:50.941Z,92417.63
2023-02-25T23:29:19.116Z,92430.81
2023-02-25T23:31:48.958Z,92440.13
2023-02-25T23:34:26.139Z,92430.22
2023-02-25T23:36:57.535Z,92449.53
2023-02-25T23:39:25.700Z,92444.19
2023-02-25T23:41:54.135Z,92442.84
2023-02-25T23:45:57.697Z,92436.34
2023-02-25T23:48:25.949Z,92432.63
2023-02-25T23:50:53.866Z,92435.25
2023-02-25T23:53:21.775Z,92437.97
2023-02-25T23:55:49.728Z,92439.28
2023-02-25T23:58:17.602Z,92439.09
